createdAt,value
2022-12-16T00:04:51.708Z,43.73
2022-12-16T00:09:53.411Z,44.03
2022-12-16T00:14:57.588Z,42.90
2022-12-16T00:20:05.476Z,46.10
2022-12-16T00:25:07.661Z,49.00
2022-12-16T00:30:10.411Z,45.03
2022-12-16T00:35:15.437Z,44.07
2022-12-16T00:40:21.883Z,46.97
2022-12-16T00:45:26.247Z,45.77
2022-12-16T00:50:31.819Z,49.23
2022-12-16T00:55:34.488Z,46.93
2022-12-16T01:00:38.730Z,49.33
2022-12-16T01:05:42.889Z,50.93
2022-12-16T01:10:55.224Z,47.20
2022-12-16T01:16:03.133Z,47.33
2022-12-16T01:21:07.806Z,55.93
2022-12-16T01:26:17.032Z,49.77
2022-12-16T01:31:24.407Z,52.87
2022-12-16T01:36:26.493Z,52.13
2022-12-16T01:41:30.445Z,53.57
2022-12-16T01:46:34.347Z,55.37
2022-12-16T01:51:38.557Z,53.13
2022-12-16T01:56:46.859Z,53.57
2022-12-16T02:01:48.648Z,56.57
2022-12-16T02:06:52.785Z,59.17
2022-12-16T02:12:20.987Z,60.90
2022-12-16T02:18:02.559Z,62.53
2022-12-16T02:23:16.374Z,60.13
2022-12-16T02:28:34.207Z,58.70
2022-12-16T02:33:39.229Z,52.20
2022-12-16T02:38:56.565Z,58.57
2022-12-16T02:44:10.405Z,58.23
2022-12-16T02:49:12.069Z,57.43
2022-12-16T02:54:22.227Z,53.67
2022-12-16T02:59:57.929Z,48.27
2022-12-16T03:05:22.931Z,58.10
2022-12-16T03:10:32.005Z,54.37
2022-12-16T03:15:36.930Z,44.40
2022-12-16T03:21:00.710Z,50.90
2022-12-16T03:26:12.735Z,51.73
2022-12-16T03:31:25.685Z,61.63
2022-12-16T03:36:33.699Z,63.13
2022-12-16T03:41:38.981Z,55.33
2022-12-16T03:46:45.592Z,66.73
2022-12-16T03:51:47.319Z,58.63
2022-12-16T03:56:54.273Z,68.93
2022-12-16T04:01:58.364Z,59.27
2022-12-16T04:07:24.480Z,60.87
2022-12-16T04:12:47.465Z,63.50
2022-12-16T04:18:13.011Z,60.53
2022-12-16T04:23:33.458Z,68.27
2022-12-16T04:28:35.524Z,62.63
2022-12-16T04:33:56.132Z,66.37
2022-12-16T04:39:16.660Z,62.00
2022-12-16T04:44:36.960Z,65.53
2022-12-16T04:49:57.655Z,68.37
2022-12-16T04:55:20.611Z,71.60
2022-12-16T05:00:43.269Z,86.83
2022-12-16T05:06:06.088Z,87.13
2022-12-16T05:11:26.347Z,94.70
2022-12-16T05:16:47.401Z,79.87
2022-12-16T05:22:11.120Z,74.43
2022-12-16T05:27:31.635Z,87.17
2022-12-16T05:33:11.727Z,112.77
2022-12-16T05:38:32.525Z,98.13
2022-12-16T05:43:52.776Z,83.33
2022-12-16T05:49:15.040Z,73.27
2022-12-16T05:54:37.967Z,61.70
2022-12-16T05:59:57.988Z,67.50
2022-12-16T06:05:18.258Z,59.57
2022-12-16T06:10:38.338Z,57.77
2022-12-16T06:16:06.641Z,57.70
2022-12-16T06:21:29.598Z,60.30
2022-12-16T06:26:49.901Z,59.83
2022-12-16T06:32:10.451Z,57.57
2022-12-16T06:37:30.821Z,58.40
2022-12-16T06:42:51.181Z,63.57
2022-12-16T06:48:11.835Z,57.87
2022-12-16T06:53:32.549Z,54.40
2022-12-16T06:58:53.708Z,55.07
2022-12-16T07:04:16.246Z,51.10
2022-12-16T07:09:37.430Z,51.40
2022-12-16T07:14:58.438Z,47.00
2022-12-16T07:20:19.593Z,60.53
2022-12-16T07:25:39.836Z,59.37
2022-12-16T07:31:01.511Z,59.07
2022-12-16T07:36:21.643Z,57.23
2022-12-16T07:41:41.880Z,62.77
2022-12-16T07:47:04.558Z,52.07
2022-12-16T07:52:24.752Z,50.83
2022-12-16T07:57:47.260Z,51.70
2022-12-16T08:03:12.560Z,48.87
2022-12-16T08:08:32.809Z,50.90
2022-12-16T08:13:55.589Z,54.33
2022-12-16T08:19:16.413Z,55.27
2022-12-16T08:24:36.771Z,49.60
2022-12-16T08:29:59.205Z,51.30
2022-12-16T08:35:19.666Z,51.63
2022-12-16T08:40:42.574Z,50.57
2022-12-16T08:46:02.806Z,45.83
2022-12-16T08:51:25.425Z,46.20
2022-12-16T08:56:45.863Z,48.20
2022-12-16T09:02:06.426Z,49.23
2022-12-16T09:07:26.851Z,46.27
2022-12-16T09:12:47.384Z,49.00
2022-12-16T09:18:17.433Z,53.93
2022-12-16T09:23:37.659Z,42.30
2022-12-16T09:28:58.218Z,51.40
2022-12-16T09:34:19.297Z,47.27
2022-12-16T09:39:39.674Z,50.10
2022-12-16T09:45:09.932Z,50.30
2022-12-16T09:50:39.116Z,47.27
2022-12-16T09:56:14.372Z,49.13
2022-12-16T10:01:39.369Z,47.77
2022-12-16T10:07:05.263Z,52.23
2022-12-16T10:12:44.192Z,47.23
2022-12-16T10:18:04.971Z,44.00
2022-12-16T10:23:36.921Z,43.17
2022-12-16T10:29:08.053Z,47.27
2022-12-16T10:34:33.861Z,51.70
2022-12-16T10:39:56.842Z,42.20
2022-12-16T10:45:20.129Z,48.87
2022-12-16T10:50:40.720Z,90.77
2022-12-16T10:56:03.839Z,47.10
2022-12-16T11:01:40.645Z,54.33
2022-12-16T11:07:03.566Z,76.87
2022-12-16T11:12:53.208Z,54.67
2022-12-16T11:18:23.897Z,42.27
2022-12-16T11:23:46.869Z,44.00
2022-12-16T11:29:32.749Z,42.30
2022-12-16T11:35:10.086Z,48.37
2022-12-16T11:40:33.939Z,47.87
2022-12-16T11:45:54.304Z,44.83
2022-12-16T11:51:18.391Z,47.20
2022-12-16T11:56:42.231Z,49.70
2022-12-16T12:02:13.535Z,49.07
2022-12-16T12:07:44.857Z,54.87
2022-12-16T12:13:07.813Z,59.97
2022-12-16T12:19:24.198Z,62.90
2022-12-16T12:24:44.462Z,81.03
2022-12-16T12:30:11.632Z,86.00
2022-12-16T12:35:39.906Z,77.03
2022-12-16T12:41:29.443Z,84.77
2022-12-16T12:46:59.947Z,83.70
2022-12-16T12:52:45.886Z,78.73
2022-12-16T12:58:11.745Z,79.60
2022-12-16T13:03:55.183Z,83.10
2022-12-16T13:09:17.290Z,88.90
2022-12-16T13:14:50.054Z,92.33
2022-12-16T13:20:12.427Z,95.97
2022-12-16T13:26:07.528Z,93.83
2022-12-16T13:31:28.059Z,87.07
2022-12-16T13:36:53.239Z,90.70
2022-12-16T13:42:18.477Z,96.03
2022-12-16T13:47:54.159Z,90.77
2022-12-16T13:53:17.035Z,106.10
2022-12-16T13:58:56.690Z,94.30
2022-12-16T14:04:18.442Z,108.93
2022-12-16T14:10:00.098Z,95.57
2022-12-16T14:15:32.119Z,102.13
2022-12-16T14:21:03.516Z,103.13
2022-12-16T14:26:29.424Z,107.70
2022-12-16T14:31:56.544Z,100.57
2022-12-16T14:37:22.247Z,97.60
2022-12-16T14:42:47.052Z,100.13
2022-12-16T14:48:07.292Z,109.57
2022-12-16T14:53:39.379Z,103.83
2022-12-16T14:59:04.146Z,111.27
2022-12-16T15:04:32.160Z,97.77
2022-12-16T15:10:02.249Z,111.63
2022-12-16T15:15:25.723Z,116.20
2022-12-16T15:20:47.364Z,124.77
2022-12-16T15:26:11.150Z,131.10
2022-12-16T15:31:46.327Z,125.53
2022-12-16T15:37:09.679Z,147.53
2022-12-16T15:42:41.448Z,147.73
2022-12-16T15:48:09.221Z,151.00
2022-12-16T15:53:55.050Z,126.73
2022-12-16T15:59:42.232Z,120.70
2022-12-16T16:05:02.606Z,128.87
2022-12-16T16:10:56.400Z,146.17
2022-12-16T16:16:19.134Z,130.00
2022-12-16T16:21:41.495Z,138.00
2022-12-16T16:27:04.395Z,136.57
2022-12-16T16:32:27.727Z,119.47
2022-12-16T16:37:48.296Z,123.97
2022-12-16T16:43:08.519Z,129.30
2022-12-16T16:48:34.362Z,141.00
2022-12-16T16:53:56.998Z,121.90
2022-12-16T16:59:18.225Z,137.53
2022-12-16T17:04:44.929Z,156.70
2022-12-16T17:10:05.407Z,156.50
2022-12-16T17:15:37.887Z,130.40
2022-12-16T17:21:01.239Z,127.67
2022-12-16T17:26:24.249Z,168.95
2022-12-16T17:31:46.959Z,151.63
2022-12-16T17:37:08.269Z,143.17
2022-12-16T17:42:29.299Z,124.27
2022-12-16T17:47:55.242Z,137.60
2022-12-16T17:53:16.883Z,154.27
2022-12-16T17:58:37.801Z,141.70
2022-12-16T18:03:58.181Z,139.20
2022-12-16T18:09:20.972Z,170.77
2022-12-16T18:14:41.426Z,173.57
2022-12-16T18:20:01.931Z,191.50
2022-12-16T18:25:24.760Z,174.77
2022-12-16T18:30:44.796Z,175.60
2022-12-16T18:36:07.678Z,193.67
2022-12-16T18:41:37.044Z,230.53
2022-12-16T18:46:57.306Z,183.67
2022-12-16T18:52:18.550Z,234.60
2022-12-16T18:57:42.578Z,218.97
2022-12-16T19:03:02.628Z,308.60
2022-12-16T19:08:23.285Z,269.30
2022-12-16T19:13:45.471Z,253.93
2022-12-16T19:19:16.376Z,366.93
2022-12-16T19:24:39.866Z,686.60
2022-12-16T19:30:00.296Z,767.53
2022-12-16T19:35:20.599Z,521.80
2022-12-16T19:40:41.747Z,516.33
2022-12-16T19:46:02.407Z,294.80
2022-12-16T19:51:25.469Z,264.40
2022-12-16T19:56:45.896Z,593.27
2022-12-16T20:02:08.633Z,699.80
2022-12-16T20:07:34.911Z,440.23
2022-12-16T20:12:56.195Z,448.50
2022-12-16T20:18:22.980Z,409.63
2022-12-16T20:23:45.991Z,359.60
2022-12-16T20:29:06.819Z,452.87
2022-12-16T20:34:27.675Z,534.23
2022-12-16T20:39:56.880Z,612.90
2022-12-16T20:45:19.970Z,510.30
2022-12-16T20:50:40.912Z,435.83
2022-12-16T20:56:01.260Z,346.53
2022-12-16T21:01:24.593Z,502.83
2022-12-16T21:06:45.084Z,456.37
2022-12-16T21:12:08.297Z,433.37
2022-12-16T21:17:31.751Z,589.10
2022-12-16T21:22:52.074Z,439.53
2022-12-16T21:28:24.889Z,571.37
2022-12-16T21:33:45.638Z,375.03
2022-12-16T21:39:07.159Z,363.93
2022-12-16T21:44:27.410Z,367.90
2022-12-16T21:49:50.159Z,387.90
2022-12-16T21:55:10.386Z,347.90
2022-12-16T22:00:33.786Z,363.93
2022-12-16T22:05:54.193Z,517.60
2022-12-16T22:11:16.124Z,377.30
2022-12-16T22:16:38.506Z,212.03
2022-12-16T22:21:58.451Z,294.43
2022-12-16T22:27:18.888Z,325.07
2022-12-16T22:32:41.714Z,213.10
2022-12-16T22:38:02.090Z,238.90
2022-12-16T22:43:23.678Z,236.60
2022-12-16T22:48:44.005Z,222.63
2022-12-16T22:54:07.443Z,217.43
2022-12-16T22:59:27.797Z,376.63
2022-12-16T23:04:48.125Z,232.17
2022-12-16T23:10:08.548Z,448.50
2022-12-16T23:15:32.217Z,350.17
2022-12-16T23:20:52.627Z,317.40
2022-12-16T23:26:20.831Z,323.60
2022-12-16T23:31:41.258Z,352.50
2022-12-16T23:37:01.787Z,252.83
2022-12-16T23:42:23.574Z,318.47
2022-12-16T23:47:43.880Z,363.57
2022-12-16T23:53:04.000Z,329.37
2022-12-16T23:58:26.511Z,274.73
